createdAt,value
2023-02-02T00:00:56.111Z,6.30
2023-02-02T00:03:59.557Z,6.13
2023-02-02T00:07:05.624Z,6.50
2023-02-02T00:10:09.338Z,6.88
2023-02-02T00:13:12.502Z,5.63
2023-02-02T00:16:39.624Z,4.82
2023-02-02T00:19:42.435Z,5.43
2023-02-02T00:22:46.619Z,8.20
2023-02-02T00:25:52.042Z,6.18
2023-02-02T00:28:55.147Z,7.22
2023-02-02T00:31:58.726Z,5.30
2023-02-02T00:35:01.611Z,6.35
2023-02-02T00:38:05.934Z,6.05
2023-02-02T00:41:08.863Z,4.38
2023-02-02T00:44:29.637Z,4.22
2023-02-02T00:47:32.594Z,5.70
2023-02-02T00:50:35.369Z,5.68
2023-02-02T00:53:39.752Z,6.80
2023-02-02T00:56:42.845Z,4.72
2023-02-02T00:59:46.281Z,5.57
2023-02-02T01:02:49.113Z,6.00
2023-02-02T01:05:52.100Z,6.50
2023-02-02T01:08:56.316Z,5.60
2023-02-02T01:11:59.321Z,5.82
2023-02-02T01:15:02.741Z,5.53
2023-02-02T01:18:07.626Z,6.05
2023-02-02T01:21:14.048Z,5.40
2023-02-02T01:24:18.307Z,5.82
2023-02-02T01:27:21.198Z,6.07
2023-02-02T01:30:24.099Z,7.07
2023-02-02T01:33:26.986Z,6.75
2023-02-02T01:36:30.298Z,6.15
2023-02-02T01:39:35.566Z,5.30
2023-02-02T01:42:38.438Z,4.78
2023-02-02T01:45:41.284Z,4.13
2023-02-02T01:48:47.883Z,7.38
2023-02-02T01:51:54.558Z,5.32
2023-02-02T01:55:01.917Z,5.85
2023-02-02T01:58:10.658Z,5.70
2023-02-02T02:01:15.636Z,6.07
2023-02-02T02:04:18.962Z,5.38
2023-02-02T02:07:22.298Z,6.88
2023-02-02T02:10:26.945Z,5.60
2023-02-02T02:13:45.758Z,6.50
2023-02-02T02:17:01.107Z,4.80
2023-02-02T02:20:54.046Z,6.50
2023-02-02T02:25:01.717Z,5.25
2023-02-02T02:28:34.323Z,5.50
2023-02-02T02:32:04.003Z,4.38
2023-02-02T02:35:16.037Z,5.15
2023-02-02T02:38:26.802Z,5.43
2023-02-02T02:41:36.974Z,3.88
2023-02-02T02:44:39.902Z,7.10
2023-02-02T02:47:45.531Z,5.10
2023-02-02T02:50:48.624Z,6.13
2023-02-02T02:53:51.576Z,5.05
2023-02-02T02:57:16.563Z,6.13
2023-02-02T03:00:47.987Z,4.07
2023-02-02T03:04:06.387Z,5.45
2023-02-02T03:07:13.625Z,5.13
2023-02-02T03:10:20.121Z,6.70
2023-02-02T03:13:23.173Z,6.05
2023-02-02T03:16:25.969Z,5.78
2023-02-02T03:19:30.132Z,5.78
2023-02-02T03:22:32.982Z,5.05
2023-02-02T03:25:35.914Z,5.97
2023-02-02T03:28:38.768Z,5.25
2023-02-02T03:31:41.789Z,4.30
2023-02-02T03:34:45.973Z,3.45
2023-02-02T03:37:49.298Z,4.72
2023-02-02T03:40:52.676Z,4.38
2023-02-02T03:43:55.606Z,4.22
2023-02-02T03:46:58.470Z,3.83
2023-02-02T03:50:02.851Z,4.93
2023-02-02T03:53:06.041Z,3.83
2023-02-02T03:56:08.889Z,4.05
2023-02-02T03:59:11.743Z,7.05
2023-02-02T04:02:14.568Z,4.32
2023-02-02T04:05:19.185Z,4.22
2023-02-02T04:08:22.041Z,4.88
2023-02-02T04:11:25.045Z,4.80
2023-02-02T04:14:27.882Z,5.10
2023-02-02T04:17:30.689Z,3.65
2023-02-02T04:20:34.875Z,3.72
2023-02-02T04:23:38.107Z,6.63
2023-02-02T04:26:41.444Z,4.07
2023-02-02T04:29:44.263Z,4.72
2023-02-02T04:32:47.161Z,4.72
2023-02-02T04:35:51.518Z,3.72
2023-02-02T04:38:55.277Z,4.40
2023-02-02T04:41:58.211Z,4.45
2023-02-02T04:45:01.007Z,4.25
2023-02-02T04:48:04.482Z,4.15
2023-02-02T04:51:11.475Z,6.50
2023-02-02T04:54:14.873Z,4.57
2023-02-02T04:57:17.730Z,4.53
2023-02-02T05:00:21.117Z,3.90
2023-02-02T05:03:24.351Z,4.28
2023-02-02T05:06:28.628Z,3.47
2023-02-02T05:09:31.437Z,3.80
2023-02-02T05:12:34.361Z,5.80
2023-02-02T05:15:37.259Z,3.47
2023-02-02T05:18:40.145Z,3.08
2023-02-02T05:21:45.714Z,4.15
2023-02-02T05:24:48.539Z,3.80
2023-02-02T05:27:51.367Z,4.15
2023-02-02T05:30:54.369Z,5.13
2023-02-02T05:33:57.151Z,2.78
2023-02-02T05:37:01.283Z,3.78
2023-02-02T05:40:04.201Z,4.35
2023-02-02T05:43:07.240Z,4.55
2023-02-02T05:46:10.070Z,3.72
2023-02-02T05:49:14.442Z,3.97
2023-02-02T05:52:23.218Z,3.35
2023-02-02T05:55:26.418Z,4.60
2023-02-02T05:58:29.538Z,3.85
2023-02-02T06:01:32.363Z,4.22
2023-02-02T06:04:35.374Z,6.00
2023-02-02T06:07:39.546Z,3.13
2023-02-02T06:10:43.077Z,5.60
2023-02-02T06:13:46.379Z,3.75
2023-02-02T06:16:49.193Z,4.35
2023-02-02T06:19:52.049Z,3.45
2023-02-02T06:22:56.412Z,4.20
2023-02-02T06:25:59.866Z,6.80
2023-02-02T06:29:03.262Z,3.17
2023-02-02T06:32:06.164Z,3.38
2023-02-02T06:35:10.623Z,5.93
2023-02-02T06:38:14.882Z,5.25
2023-02-02T06:41:17.690Z,4.97
2023-02-02T06:44:21.036Z,4.43
2023-02-02T06:47:26.587Z,6.50
2023-02-02T06:50:29.714Z,5.57
2023-02-02T06:53:34.884Z,5.35
2023-02-02T06:56:37.731Z,6.07
2023-02-02T06:59:41.033Z,5.75
2023-02-02T07:02:46.413Z,6.00
2023-02-02T07:05:50.148Z,5.65
2023-02-02T07:09:02.690Z,6.38
2023-02-02T07:12:06.179Z,6.35
2023-02-02T07:15:10.041Z,7.43
2023-02-02T07:18:12.879Z,6.07
2023-02-02T07:21:19.088Z,7.15
2023-02-02T07:24:23.491Z,6.85
2023-02-02T07:27:26.403Z,6.75
2023-02-02T07:30:30.079Z,6.68
2023-02-02T07:33:38.707Z,6.38
2023-02-02T07:36:41.950Z,5.00
2023-02-02T07:39:46.566Z,7.70
2023-02-02T07:42:50.002Z,7.07
2023-02-02T07:45:52.891Z,8.38
2023-02-02T07:48:56.602Z,9.60
2023-02-02T07:51:59.918Z,11.10
2023-02-02T07:55:14.455Z,5.97
2023-02-02T07:58:18.063Z,10.00
2023-02-02T08:01:22.924Z,12.23
2023-02-02T08:04:26.020Z,11.30
2023-02-02T08:07:28.925Z,12.80
2023-02-02T08:10:33.254Z,13.85
2023-02-02T08:13:36.098Z,11.38
2023-02-02T08:16:38.992Z,11.13
2023-02-02T08:19:41.903Z,13.95
2023-02-02T08:22:44.722Z,11.95
2023-02-02T08:25:48.953Z,10.30
2023-02-02T08:28:54.692Z,10.40
2023-02-02T08:31:57.646Z,13.10
2023-02-02T08:35:00.598Z,11.15
2023-02-02T08:38:05.643Z,11.73
2023-02-02T08:41:12.337Z,9.25
2023-02-02T08:44:16.954Z,11.95
2023-02-02T08:47:20.101Z,13.40
2023-02-02T08:50:23.108Z,10.30
2023-02-02T08:53:27.160Z,11.50
2023-02-02T08:56:31.681Z,11.05
2023-02-02T08:59:34.575Z,13.18
2023-02-02T09:02:37.484Z,14.80
2023-02-02T09:05:40.446Z,14.30
2023-02-02T09:08:43.911Z,10.73
2023-02-02T09:11:48.258Z,13.98
2023-02-02T09:14:51.103Z,16.58
2023-02-02T09:17:54.356Z,13.75
2023-02-02T09:21:00.999Z,14.52
2023-02-02T09:24:08.284Z,14.95
2023-02-02T09:27:12.501Z,11.65
2023-02-02T09:30:15.991Z,14.63
2023-02-02T09:33:18.861Z,11.80
2023-02-02T09:36:23.430Z,12.20
2023-02-02T09:39:26.429Z,23.63
2023-02-02T09:42:45.173Z,13.45
2023-02-02T09:45:56.716Z,12.70
2023-02-02T09:49:03.074Z,15.95
2023-02-02T09:52:13.279Z,21.30
2023-02-02T09:55:23.346Z,10.57
2023-02-02T09:58:31.712Z,13.35
2023-02-02T10:01:38.090Z,15.07
2023-02-02T10:04:45.049Z,14.05
2023-02-02T10:07:52.632Z,10.43
2023-02-02T10:10:55.877Z,13.52
2023-02-02T10:14:06.377Z,10.73
2023-02-02T10:17:26.387Z,13.70
2023-02-02T10:20:38.448Z,11.10
2023-02-02T10:23:44.310Z,12.15
2023-02-02T10:26:49.561Z,16.67
2023-02-02T10:29:59.952Z,13.80
2023-02-02T10:33:07.778Z,10.93
2023-02-02T10:36:17.783Z,14.73
2023-02-02T10:39:31.954Z,11.23
2023-02-02T10:43:04.836Z,14.25
2023-02-02T10:46:15.143Z,11.40
2023-02-02T10:49:28.077Z,15.43
2023-02-02T10:52:33.627Z,11.43
2023-02-02T10:55:42.428Z,12.65
2023-02-02T10:58:51.838Z,14.70
2023-02-02T11:01:56.109Z,14.32
2023-02-02T11:05:16.536Z,12.00
2023-02-02T11:08:21.536Z,11.43
2023-02-02T11:11:27.192Z,12.30
2023-02-02T11:14:44.989Z,14.65
2023-02-02T11:17:50.652Z,12.00
2023-02-02T11:20:54.019Z,13.95
2023-02-02T11:24:01.207Z,12.45
2023-02-02T11:27:08.789Z,9.68
2023-02-02T11:30:21.957Z,13.98
2023-02-02T11:33:33.096Z,12.88
2023-02-02T11:36:36.007Z,10.27
2023-02-02T11:39:39.004Z,10.90
2023-02-02T11:42:46.745Z,14.02
2023-02-02T11:45:55.698Z,9.05
2023-02-02T11:49:03.607Z,13.70
2023-02-02T11:52:08.650Z,11.63
2023-02-02T11:55:18.384Z,16.30
2023-02-02T11:58:24.948Z,18.92
2023-02-02T12:01:30.302Z,15.00
2023-02-02T12:04:34.651Z,12.30
2023-02-02T12:07:37.723Z,11.75
2023-02-02T12:10:46.435Z,15.95
2023-02-02T12:14:00.837Z,15.27
2023-02-02T12:17:21.656Z,13.52
2023-02-02T12:20:37.644Z,12.88
2023-02-02T12:24:05.954Z,14.65
2023-02-02T12:27:24.114Z,14.10
2023-02-02T12:30:35.123Z,15.93
2023-02-02T12:33:47.836Z,13.13
2023-02-02T12:37:03.708Z,16.88
2023-02-02T12:40:32.870Z,18.92
2023-02-02T12:43:41.861Z,14.45
2023-02-02T12:47:01.911Z,11.57
2023-02-02T12:50:18.600Z,13.35
2023-02-02T12:53:37.759Z,13.00
2023-02-02T12:56:50.069Z,13.75
2023-02-02T13:00:09.971Z,13.85
2023-02-02T13:03:29.481Z,12.52
2023-02-02T13:06:53.825Z,14.40
2023-02-02T13:10:24.930Z,17.52
2023-02-02T13:13:32.438Z,14.48
2023-02-02T13:16:38.217Z,13.55
2023-02-02T13:19:43.506Z,14.88
2023-02-02T13:22:48.632Z,16.92
2023-02-02T13:26:01.302Z,16.85
2023-02-02T13:29:09.353Z,17.42
2023-02-02T13:32:19.895Z,19.63
2023-02-02T13:35:26.923Z,19.00
2023-02-02T13:38:33.649Z,15.57
2023-02-02T13:41:38.698Z,12.13
2023-02-02T13:44:48.017Z,12.80
2023-02-02T13:47:58.844Z,12.38
2023-02-02T13:51:27.258Z,10.20
2023-02-02T13:55:21.264Z,13.43
2023-02-02T13:58:54.164Z,10.40
2023-02-02T14:02:00.408Z,12.88
2023-02-02T14:05:07.179Z,13.35
2023-02-02T14:08:21.319Z,9.32
2023-02-02T14:11:28.281Z,10.80
2023-02-02T14:14:35.765Z,12.77
2023-02-02T14:17:56.428Z,11.27
2023-02-02T14:20:59.763Z,10.38
2023-02-02T14:24:03.440Z,10.48
2023-02-02T14:27:55.985Z,10.18
2023-02-02T14:31:34.422Z,12.10
2023-02-02T14:34:40.327Z,11.38
2023-02-02T14:37:50.787Z,10.98
2023-02-02T14:40:58.478Z,9.00
2023-02-02T14:44:04.553Z,15.88
2023-02-02T14:47:40.505Z,9.70
2023-02-02T14:50:50.406Z,8.60
2023-02-02T14:53:55.919Z,11.60
2023-02-02T14:57:01.618Z,10.90
2023-02-02T15:00:05.245Z,9.23
2023-02-02T15:03:37.852Z,11.15
2023-02-02T15:06:43.241Z,15.70
2023-02-02T15:09:46.153Z,13.07
2023-02-02T15:12:50.310Z,14.05
2023-02-02T15:16:04.848Z,11.70
2023-02-02T15:19:21.914Z,13.10
2023-02-02T15:22:33.100Z,8.98
2023-02-02T15:25:42.421Z,9.10
2023-02-02T15:28:49.946Z,10.73
2023-02-02T15:31:56.018Z,8.30
2023-02-02T15:35:02.791Z,8.95
2023-02-02T15:38:13.919Z,8.73
2023-02-02T15:41:22.466Z,9.93
2023-02-02T15:44:29.893Z,8.25
2023-02-02T15:47:36.734Z,11.95
2023-02-02T15:50:46.290Z,11.85
2023-02-02T15:53:51.924Z,9.75
2023-02-02T15:56:56.109Z,9.52
2023-02-02T15:59:59.907Z,8.38
2023-02-02T16:03:05.973Z,7.03
2023-02-02T16:06:09.485Z,10.63
2023-02-02T16:09:25.008Z,10.10
2023-02-02T16:12:27.986Z,10.57
2023-02-02T16:15:31.866Z,14.65
2023-02-02T16:18:36.334Z,13.80
2023-02-02T16:21:44.913Z,13.10
2023-02-02T16:24:52.805Z,22.42
2023-02-02T16:27:56.239Z,19.25
2023-02-02T16:31:01.695Z,22.77
2023-02-02T16:34:04.928Z,19.05
2023-02-02T16:37:13.283Z,20.35
2023-02-02T16:40:24.243Z,16.33
2023-02-02T16:43:29.708Z,18.75
2023-02-02T16:46:45.626Z,15.18
2023-02-02T16:49:48.509Z,17.83
2023-02-02T16:52:54.525Z,20.25
2023-02-02T16:55:59.052Z,21.33
2023-02-02T16:59:06.426Z,17.40
2023-02-02T17:02:24.794Z,14.30
2023-02-02T17:05:30.056Z,15.73
2023-02-02T17:08:35.094Z,16.63
2023-02-02T17:11:39.301Z,14.90
2023-02-02T17:14:53.166Z,15.63
2023-02-02T17:17:56.043Z,16.27
2023-02-02T17:21:04.294Z,15.65
2023-02-02T17:24:07.610Z,15.52
2023-02-02T17:27:17.564Z,17.90
2023-02-02T17:30:20.965Z,20.50
2023-02-02T17:33:24.625Z,26.38
2023-02-02T17:36:27.442Z,21.77
2023-02-02T17:39:30.290Z,29.67
2023-02-02T17:42:35.687Z,30.00
2023-02-02T17:45:39.565Z,22.63
2023-02-02T17:48:42.729Z,24.58
2023-02-02T17:51:45.571Z,23.73
2023-02-02T17:54:48.392Z,22.30
2023-02-02T17:57:54.051Z,21.60
2023-02-02T18:00:58.972Z,20.30
2023-02-02T18:04:02.092Z,21.25
2023-02-02T18:07:07.552Z,24.30
2023-02-02T18:10:12.453Z,19.40
2023-02-02T18:13:17.631Z,23.42
2023-02-02T18:16:21.386Z,19.63
2023-02-02T18:19:24.290Z,23.35
2023-02-02T18:22:27.566Z,21.80
2023-02-02T18:25:30.405Z,23.83
2023-02-02T18:28:34.967Z,19.85
2023-02-02T18:31:38.735Z,18.60
2023-02-02T18:34:42.790Z,24.35
2023-02-02T18:37:45.579Z,25.00
2023-02-02T18:40:55.920Z,20.45
2023-02-02T18:44:00.091Z,21.88
2023-02-02T18:47:02.922Z,20.90
2023-02-02T18:50:06.477Z,20.70
2023-02-02T18:53:09.301Z,23.17
2023-02-02T18:56:13.879Z,19.55
2023-02-02T18:59:18.388Z,23.95
2023-02-02T19:02:21.199Z,27.60
2023-02-02T19:05:41.250Z,25.60
2023-02-02T19:08:44.021Z,21.23
2023-02-02T19:11:48.959Z,22.45
2023-02-02T19:14:53.338Z,21.77
2023-02-02T19:17:56.353Z,17.75
2023-02-02T19:20:59.179Z,19.88
2023-02-02T19:24:02.466Z,17.17
2023-02-02T19:27:15.817Z,18.35
2023-02-02T19:30:23.799Z,17.95
2023-02-02T19:33:38.802Z,22.60
2023-02-02T19:36:46.688Z,20.92
2023-02-02T19:39:49.499Z,19.75
2023-02-02T19:42:56.580Z,21.20
2023-02-02T19:46:01.833Z,22.02
2023-02-02T19:49:12.571Z,20.42
2023-02-02T19:52:19.855Z,17.90
2023-02-02T19:55:25.637Z,18.60
2023-02-02T19:58:35.432Z,16.83
2023-02-02T20:01:40.521Z,17.10
2023-02-02T20:04:43.322Z,18.65
2023-02-02T20:07:46.513Z,20.98
2023-02-02T20:10:49.619Z,16.52
2023-02-02T20:13:53.047Z,17.88
2023-02-02T20:17:02.155Z,17.02
2023-02-02T20:20:20.496Z,20.85
2023-02-02T20:23:42.160Z,18.85
2023-02-02T20:26:46.009Z,19.73
2023-02-02T20:29:50.940Z,18.08
2023-02-02T20:32:58.032Z,17.00
2023-02-02T20:36:02.606Z,16.33
2023-02-02T20:39:27.181Z,16.35
2023-02-02T20:42:30.802Z,15.32
2023-02-02T20:45:33.636Z,17.15
2023-02-02T20:48:37.949Z,15.18
2023-02-02T20:51:41.286Z,17.25
2023-02-02T20:54:44.077Z,18.85
2023-02-02T20:57:46.985Z,14.73
2023-02-02T21:00:49.950Z,15.75
2023-02-02T21:03:54.174Z,16.67
2023-02-02T21:06:58.646Z,15.90
2023-02-02T21:10:01.578Z,14.45
2023-02-02T21:13:04.482Z,13.90
2023-02-02T21:16:08.433Z,15.85
2023-02-02T21:19:12.632Z,13.90
2023-02-02T21:22:15.750Z,14.98
2023-02-02T21:25:18.661Z,15.90
2023-02-02T21:28:31.674Z,15.55
2023-02-02T21:31:37.377Z,13.90
2023-02-02T21:34:41.682Z,14.55
2023-02-02T21:37:46.868Z,13.43
2023-02-02T21:40:51.588Z,17.17
2023-02-02T21:43:54.430Z,15.40
2023-02-02T21:46:57.231Z,13.80
2023-02-02T21:50:14.997Z,12.93
2023-02-02T21:53:21.056Z,13.10
2023-02-02T21:56:28.242Z,14.13
2023-02-02T21:59:36.704Z,14.48
2023-02-02T22:02:44.499Z,13.93
2023-02-02T22:05:49.026Z,14.43
2023-02-02T22:08:54.531Z,12.23
2023-02-02T22:12:00.647Z,13.10
2023-02-02T22:15:04.918Z,12.32
2023-02-02T22:18:14.628Z,12.25
2023-02-02T22:21:21.029Z,13.35
2023-02-02T22:24:24.002Z,11.50
2023-02-02T22:27:32.215Z,11.88
2023-02-02T22:30:38.776Z,10.38
2023-02-02T22:33:41.617Z,11.52
2023-02-02T22:36:45.991Z,12.00
2023-02-02T22:39:48.827Z,10.82
2023-02-02T22:42:52.423Z,12.68
2023-02-02T22:45:55.328Z,11.70
2023-02-02T22:48:58.167Z,11.70
2023-02-02T22:52:02.318Z,13.02
2023-02-02T22:55:05.424Z,10.93
2023-02-02T22:58:08.287Z,11.07
2023-02-02T23:01:11.810Z,11.30
2023-02-02T23:04:14.666Z,12.20
2023-02-02T23:07:18.899Z,10.75
2023-02-02T23:13:26.699Z,11.52
2023-02-02T23:16:29.557Z,11.48
2023-02-02T23:19:32.423Z,10.25
2023-02-02T23:22:36.762Z,11.27
2023-02-02T23:25:39.608Z,10.02
2023-02-02T23:28:42.511Z,9.75
2023-02-02T23:31:45.325Z,10.20
2023-02-02T23:34:48.190Z,10.65
2023-02-02T23:37:52.382Z,8.98
2023-02-02T23:40:55.231Z,8.48
2023-02-02T23:43:58.199Z,8.90
2023-02-02T23:47:02.720Z,10.15
2023-02-02T23:50:09.122Z,8.75
2023-02-02T23:53:14.104Z,8.60
2023-02-02T23:56:17.788Z,12.05
2023-02-02T23:59:20.571Z,8.75
